sensor_id;sensor_type;location;lat;lon;timestamp;pressure;altitude;pressure_sealevel;temperature;humidity
43155;BME280;34212;51.018;13.586;2024-03-06T00:03:28;97996.72;;;6.00;71.90
43155;BME280;34212;51.018;13.586;2024-03-06T00:08:30;98002.41;;;6.06;72.30
43155;BME280;34212;51.018;13.586;2024-03-06T00:13:32;98010.75;;;6.11;72.21
43155;BME280;34212;51.018;13.586;2024-03-06T00:18:33;98009.06;;;6.10;72.04
43155;BME280;34212;51.018;13.586;2024-03-06T00:23:35;98005.88;;;6.06;71.98
43155;BME280;34212;51.018;13.586;2024-03-06T00:28:38;98009.66;;;6.04;71.78
43155;BME280;34212;51.018;13.586;2024-03-06T00:33:40;98018.72;;;6.01;72.04
43155;BME280;34212;51.018;13.586;2024-03-06T00:38:42;98017.91;;;6.00;72.28
43155;BME280;34212;51.018;13.586;2024-03-06T00:43:44;98012.59;;;6.00;72.13
43155;BME280;34212;51.018;13.586;2024-03-06T00:48:45;98012.84;;;6.07;72.55
43155;BME280;34212;51.018;13.586;2024-03-06T00:53:47;98024.38;;;6.16;72.76
43155;BME280;34212;51.018;13.586;2024-03-06T00:58:48;98024.50;;;6.24;71.93
43155;BME280;34212;51.018;13.586;2024-03-06T01:03:50;98031.84;;;6.30;72.05
43155;BME280;34212;51.018;13.586;2024-03-06T01:08:51;98027.91;;;6.34;72.18
43155;BME280;34212;51.018;13.586;2024-03-06T01:13:53;98028.31;;;6.39;72.21
43155;BME280;34212;51.018;13.586;2024-03-06T01:18:55;98032.19;;;6.45;72.25
43155;BME280;34212;51.018;13.586;2024-03-06T01:23:56;98029.38;;;6.46;71.77
43155;BME280;34212;51.018;13.586;2024-03-06T01:28:58;98032.63;;;6.40;71.85
43155;BME280;34212;51.018;13.586;2024-03-06T01:34:00;98034.50;;;6.30;71.83
43155;BME280;34212;51.018;13.586;2024-03-06T01:39:01;98034.00;;;6.17;71.76
43155;BME280;34212;51.018;13.586;2024-03-06T01:44:03;98024.88;;;6.01;71.47
43155;BME280;34212;51.018;13.586;2024-03-06T01:49:05;98028.50;;;5.91;72.29
43155;BME280;34212;51.018;13.586;2024-03-06T01:54:08;98033.00;;;5.81;71.96
43155;BME280;34212;51.018;13.586;2024-03-06T01:59:11;98037.75;;;5.77;71.80
43155;BME280;34212;51.018;13.586;2024-03-06T02:04:25;98047.91;;;5.72;72.11
43155;BME280;34212;51.018;13.586;2024-03-06T02:09:29;98045.84;;;5.66;72.15
43155;BME280;34212;51.018;13.586;2024-03-06T02:14:30;98044.75;;;5.59;71.57
43155;BME280;34212;51.018;13.586;2024-03-06T02:19:43;98045.31;;;5.52;71.81
43155;BME280;34212;51.018;13.586;2024-03-06T02:24:47;98048.66;;;5.45;71.62
43155;BME280;34212;51.018;13.586;2024-03-06T02:29:49;98051.75;;;5.40;71.76
43155;BME280;34212;51.018;13.586;2024-03-06T02:34:51;98056.59;;;5.35;71.89
43155;BME280;34212;51.018;13.586;2024-03-06T02:39:52;98060.50;;;5.31;72.00
43155;BME280;34212;51.018;13.586;2024-03-06T02:44:54;98061.78;;;5.27;71.72
43155;BME280;34212;51.018;13.586;2024-03-06T02:49:55;98065.53;;;5.24;71.89
43155;BME280;34212;51.018;13.586;2024-03-06T02:54:57;98071.81;;;5.23;72.25
43155;BME280;34212;51.018;13.586;2024-03-06T02:59:59;98065.09;;;5.19;72.06
43155;BME280;34212;51.018;13.586;2024-03-06T03:05:00;98075.97;;;5.16;72.13
43155;BME280;34212;51.018;13.586;2024-03-06T03:10:02;98083.22;;;5.14;71.89
43155;BME280;34212;51.018;13.586;2024-03-06T03:15:05;98088.06;;;5.09;71.87
43155;BME280;34212;51.018;13.586;2024-03-06T03:20:08;98073.47;;;5.05;71.97
43155;BME280;34212;51.018;13.586;2024-03-06T03:25:13;98088.75;;;5.01;72.18
43155;BME280;34212;51.018;13.586;2024-03-06T03:30:16;98102.25;;;4.98;72.17
43155;BME280;34212;51.018;13.586;2024-03-06T03:35:18;98107.53;;;4.98;71.90
43155;BME280;34212;51.018;13.586;2024-03-06T03:40:22;98109.63;;;5.04;72.57
43155;BME280;34212;51.018;13.586;2024-03-06T03:45:24;98116.16;;;5.10;72.24
43155;BME280;34212;51.018;13.586;2024-03-06T03:50:25;98107.28;;;5.11;72.29
43155;BME280;34212;51.018;13.586;2024-03-06T03:55:27;98111.03;;;5.08;71.86
43155;BME280;34212;51.018;13.586;2024-03-06T04:00:29;98122.28;;;5.10;72.58
43155;BME280;34212;51.018;13.586;2024-03-06T04:05:31;98118.81;;;5.20;72.58
43155;BME280;34212;51.018;13.586;2024-03-06T04:10:33;98126.34;;;5.34;72.53
43155;BME280;34212;51.018;13.586;2024-03-06T04:15:35;98123.31;;;5.48;73.26
43155;BME280;34212;51.018;13.586;2024-03-06T04:20:36;98129.13;;;5.62;72.97
43155;BME280;34212;51.018;13.586;2024-03-06T04:25:38;98127.03;;;5.75;73.21
43155;BME280;34212;51.018;13.586;2024-03-06T04:30:41;98136.63;;;5.86;73.06
43155;BME280;34212;51.018;13.586;2024-03-06T04:35:42;98147.91;;;5.97;73.23
43155;BME280;34212;51.018;13.586;2024-03-06T04:40:44;98147.06;;;6.07;73.20
43155;BME280;34212;51.018;13.586;2024-03-06T04:45:46;98150.81;;;6.14;72.97
43155;BME280;34212;51.018;13.586;2024-03-06T04:50:48;98158.84;;;6.22;73.09
43155;BME280;34212;51.018;13.586;2024-03-06T04:55:53;98157.47;;;6.28;73.01
43155;BME280;34212;51.018;13.586;2024-03-06T05:00:54;98162.47;;;6.31;73.26
43155;BME280;34212;51.018;13.586;2024-03-06T05:05:56;98164.00;;;6.33;72.99
43155;BME280;34212;51.018;13.586;2024-03-06T05:11:16;98165.81;;;6.33;73.11
43155;BME280;34212;51.018;13.586;2024-03-06T05:16:35;98171.69;;;6.27;73.07
43155;BME280;34212;51.018;13.586;2024-03-06T05:21:54;98177.59;;;6.11;73.08
43155;BME280;34212;51.018;13.586;2024-03-06T05:27:13;98184.53;;;5.92;72.88
43155;BME280;34212;51.018;13.586;2024-03-06T05:32:35;98193.19;;;5.75;73.40
43155;BME280;34212;51.018;13.586;2024-03-06T05:37:54;98194.56;;;5.60;73.11
43155;BME280;34212;51.018;13.586;2024-03-06T05:43:13;98197.38;;;5.48;72.93
43155;BME280;34212;51.018;13.586;2024-03-06T05:48:32;98207.91;;;5.39;72.93
43155;BME280;34212;51.018;13.586;2024-03-06T05:53:51;98215.56;;;5.32;72.75
43155;BME280;34212;51.018;13.586;2024-03-06T05:59:10;98222.13;;;5.28;73.26
43155;BME280;34212;51.018;13.586;2024-03-06T06:04:13;98219.75;;;5.25;72.84
43155;BME280;34212;51.018;13.586;2024-03-06T06:09:15;98233.22;;;5.22;73.16
43155;BME280;34212;51.018;13.586;2024-03-06T06:14:17;98234.47;;;5.18;73.04
43155;BME280;34212;51.018;13.586;2024-03-06T06:19:19;98240.72;;;5.17;72.77
43155;BME280;34212;51.018;13.586;2024-03-06T06:24:20;98252.00;;;5.19;72.70
43155;BME280;34212;51.018;13.586;2024-03-06T06:29:22;98247.56;;;5.19;73.23
43155;BME280;34212;51.018;13.586;2024-03-06T06:34:23;98254.38;;;5.22;73.10
43155;BME280;34212;51.018;13.586;2024-03-06T06:39:28;98259.41;;;5.25;73.18
43155;BME280;34212;51.018;13.586;2024-03-06T06:44:30;98261.78;;;5.28;73.17
43155;BME280;34212;51.018;13.586;2024-03-06T06:49:31;98264.88;;;5.33;73.55
43155;BME280;34212;51.018;13.586;2024-03-06T06:54:34;98265.28;;;5.38;73.68
43155;BME280;34212;51.018;13.586;2024-03-06T06:59:36;98275.59;;;5.41;73.55
43155;BME280;34212;51.018;13.586;2024-03-06T07:04:37;98277.00;;;5.45;73.49
43155;BME280;34212;51.018;13.586;2024-03-06T07:09:39;98276.03;;;5.46;73.47
43155;BME280;34212;51.018;13.586;2024-03-06T07:14:40;98278.13;;;5.52;73.81
43155;BME280;34212;51.018;13.586;2024-03-06T07:19:42;98291.75;;;5.57;73.78
43155;BME280;34212;51.018;13.586;2024-03-06T07:24:44;98287.63;;;5.65;73.49
43155;BME280;34212;51.018;13.586;2024-03-06T07:29:45;98289.72;;;5.71;73.62
43155;BME280;34212;51.018;13.586;2024-03-06T07:34:47;98291.94;;;5.75;74.02
43155;BME280;34212;51.018;13.586;2024-03-06T07:39:48;98296.84;;;5.80;73.80
43155;BME280;34212;51.018;13.586;2024-03-06T07:44:54;98299.88;;;5.85;74.09
43155;BME280;34212;51.018;13.586;2024-03-06T07:49:56;98294.19;;;5.90;74.17
43155;BME280;34212;51.018;13.586;2024-03-06T07:54:57;98308.56;;;5.97;74.25
43155;BME280;34212;51.018;13.586;2024-03-06T07:59:59;98306.91;;;6.06;74.30
43155;BME280;34212;51.018;13.586;2024-03-06T08:05:01;98305.38;;;6.13;74.59
43155;BME280;34212;51.018;13.586;2024-03-06T08:10:03;98308.84;;;6.23;74.42
43155;BME280;34212;51.018;13.586;2024-03-06T08:15:09;98321.94;;;6.34;74.37
43155;BME280;34212;51.018;13.586;2024-03-06T08:20:11;98323.91;;;6.42;74.65
43155;BME280;34212;51.018;13.586;2024-03-06T08:25:13;98333.78;;;6.50;74.85
43155;BME280;34212;51.018;13.586;2024-03-06T08:30:15;98329.47;;;6.58;74.53
43155;BME280;34212;51.018;13.586;2024-03-06T08:35:16;98340.19;;;6.66;74.87
43155;BME280;34212;51.018;13.586;2024-03-06T08:40:22;98344.78;;;6.74;74.86
43155;BME280;34212;51.018;13.586;2024-03-06T08:45:24;98336.97;;;6.82;74.91
43155;BME280;34212;51.018;13.586;2024-03-06T08:50:26;98345.16;;;6.89;74.60
43155;BME280;34212;51.018;13.586;2024-03-06T08:55:28;98341.09;;;6.94;75.05
43155;BME280;34212;51.018;13.586;2024-03-06T09:00:29;98351.53;;;7.06;74.89
43155;BME280;34212;51.018;13.586;2024-03-06T09:05:31;98351.78;;;7.12;74.94
43155;BME280;34212;51.018;13.586;2024-03-06T09:10:32;98351.09;;;7.20;74.74
43155;BME280;34212;51.018;13.586;2024-03-06T09:15:34;98362.47;;;7.30;74.61
43155;BME280;34212;51.018;13.586;2024-03-06T09:20:36;98364.41;;;7.38;74.34
43155;BME280;34212;51.018;13.586;2024-03-06T09:25:37;98372.47;;;7.46;74.16
43155;BME280;34212;51.018;13.586;2024-03-06T09:30:39;98373.56;;;7.53;73.90
43155;BME280;34212;51.018;13.586;2024-03-06T09:35:40;98380.09;;;7.59;73.43
43155;BME280;34212;51.018;13.586;2024-03-06T09:40:46;98380.22;;;7.67;73.59
43155;BME280;34212;51.018;13.586;2024-03-06T09:45:50;98382.81;;;7.77;73.55
43155;BME280;34212;51.018;13.586;2024-03-06T09:50:53;98382.59;;;7.88;73.04
43155;BME280;34212;51.018;13.586;2024-03-06T09:55:57;98395.13;;;7.96;73.05
43155;BME280;34212;51.018;13.586;2024-03-06T10:01:00;98392.59;;;8.04;72.67
43155;BME280;34212;51.018;13.586;2024-03-06T10:06:04;98383.84;;;8.12;72.78
43155;BME280;34212;51.018;13.586;2024-03-06T10:11:11;98392.06;;;8.18;72.28
43155;BME280;34212;51.018;13.586;2024-03-06T10:16:13;98394.81;;;8.26;71.33
43155;BME280;34212;51.018;13.586;2024-03-06T10:21:15;98403.84;;;8.33;71.91
43155;BME280;34212;51.018;13.586;2024-03-06T10:26:18;98403.13;;;8.41;72.64
43155;BME280;34212;51.018;13.586;2024-03-06T10:31:27;98405.19;;;8.38;71.38
43155;BME280;34212;51.018;13.586;2024-03-06T10:36:34;98405.28;;;8.28;71.77
43155;BME280;34212;51.018;13.586;2024-03-06T10:41:38;98408.94;;;8.27;71.92
43155;BME280;34212;51.018;13.586;2024-03-06T10:46:43;98404.84;;;8.32;71.70
43155;BME280;34212;51.018;13.586;2024-03-06T10:51:49;98412.50;;;8.36;71.29
43155;BME280;34212;51.018;13.586;2024-03-06T10:56:51;98406.19;;;8.37;71.46
43155;BME280;34212;51.018;13.586;2024-03-06T11:01:55;98396.81;;;8.42;72.00
43155;BME280;34212;51.018;13.586;2024-03-06T11:06:57;98408.16;;;8.44;70.73
43155;BME280;34212;51.018;13.586;2024-03-06T11:12:01;98409.34;;;8.50;71.17
43155;BME280;34212;51.018;13.586;2024-03-06T11:17:09;98416.34;;;8.51;70.63
43155;BME280;34212;51.018;13.586;2024-03-06T11:22:12;98418.69;;;8.54;70.96
43155;BME280;34212;51.018;13.586;2024-03-06T11:27:13;98409.81;;;8.63;71.05
43155;BME280;34212;51.018;13.586;2024-03-06T11:32:16;98405.84;;;8.67;70.91
43155;BME280;34212;51.018;13.586;2024-03-06T11:37:20;98404.00;;;8.86;71.39
43155;BME280;34212;51.018;13.586;2024-03-06T11:42:33;98406.16;;;9.08;70.41
43155;BME280;34212;51.018;13.586;2024-03-06T11:47:55;98405.81;;;9.29;69.71
43155;BME280;34212;51.018;13.586;2024-03-06T11:52:57;98416.03;;;9.42;69.15
43155;BME280;34212;51.018;13.586;2024-03-06T11:57:59;98417.03;;;9.41;69.26
43155;BME280;34212;51.018;13.586;2024-03-06T12:03:00;98416.56;;;9.19;68.58
43155;BME280;34212;51.018;13.586;2024-03-06T12:08:02;98432.06;;;9.06;68.59
43155;BME280;34212;51.018;13.586;2024-03-06T12:13:04;98416.41;;;9.03;68.42
43155;BME280;34212;51.018;13.586;2024-03-06T12:18:06;98420.91;;;9.02;68.16
43155;BME280;34212;51.018;13.586;2024-03-06T12:23:08;98419.47;;;9.08;68.59
43155;BME280;34212;51.018;13.586;2024-03-06T12:28:10;98416.88;;;9.16;68.20
43155;BME280;34212;51.018;13.586;2024-03-06T12:33:16;98416.88;;;9.16;67.48
43155;BME280;34212;51.018;13.586;2024-03-06T12:38:18;98413.53;;;9.14;67.61
43155;BME280;34212;51.018;13.586;2024-03-06T12:43:19;98424.38;;;9.21;67.14
43155;BME280;34212;51.018;13.586;2024-03-06T12:48:21;98414.13;;;9.34;67.12
43155;BME280;34212;51.018;13.586;2024-03-06T12:53:23;98417.50;;;9.70;66.37
43155;BME280;34212;51.018;13.586;2024-03-06T12:58:24;98413.31;;;9.68;65.92
43155;BME280;34212;51.018;13.586;2024-03-06T13:03:26;98413.88;;;9.80;65.39
43155;BME280;34212;51.018;13.586;2024-03-06T13:08:27;98407.69;;;10.22;65.31
43155;BME280;34212;51.018;13.586;2024-03-06T13:13:29;98405.09;;;10.46;64.51
43155;BME280;34212;51.018;13.586;2024-03-06T13:18:34;98419.63;;;10.44;64.19
43155;BME280;34212;51.018;13.586;2024-03-06T13:23:35;98422.91;;;10.29;64.44
43155;BME280;34212;51.018;13.586;2024-03-06T13:28:37;98415.53;;;10.23;64.22
43155;BME280;34212;51.018;13.586;2024-03-06T13:33:39;98423.06;;;10.28;64.34
43155;BME280;34212;51.018;13.586;2024-03-06T13:38:41;98424.75;;;10.29;63.15
43155;BME280;34212;51.018;13.586;2024-03-06T13:43:42;98425.00;;;10.09;62.88
43155;BME280;34212;51.018;13.586;2024-03-06T13:48:44;98430.63;;;9.98;63.17
43155;BME280;34212;51.018;13.586;2024-03-06T13:53:45;98424.16;;;10.59;62.65
43155;BME280;34212;51.018;13.586;2024-03-06T13:58:47;98429.81;;;10.97;62.08
43155;BME280;34212;51.018;13.586;2024-03-06T14:03:49;98428.97;;;10.80;61.70
43155;BME280;34212;51.018;13.586;2024-03-06T14:08:52;98428.47;;;10.60;61.90
43155;BME280;34212;51.018;13.586;2024-03-06T14:13:53;98432.34;;;10.24;62.37
43155;BME280;34212;51.018;13.586;2024-03-06T14:18:55;98425.25;;;9.90;62.17
43155;BME280;34212;51.018;13.586;2024-03-06T14:23:59;98421.19;;;9.78;61.63
43155;BME280;34212;51.018;13.586;2024-03-06T14:29:01;98427.06;;;9.89;61.55
43155;BME280;34212;51.018;13.586;2024-03-06T14:34:07;98429.41;;;10.27;61.81
43155;BME280;34212;51.018;13.586;2024-03-06T14:39:09;98435.09;;;10.32;61.29
43155;BME280;34212;51.018;13.586;2024-03-06T14:44:12;98435.72;;;10.26;61.46
43155;BME280;34212;51.018;13.586;2024-03-06T14:49:15;98439.00;;;10.20;60.97
43155;BME280;34212;51.018;13.586;2024-03-06T14:54:17;98438.47;;;10.08;61.24
43155;BME280;34212;51.018;13.586;2024-03-06T14:59:19;98439.84;;;9.78;60.18
43155;BME280;34212;51.018;13.586;2024-03-06T15:04:21;98445.56;;;9.57;60.87
43155;BME280;34212;51.018;13.586;2024-03-06T15:09:22;98449.59;;;9.61;60.65
43155;BME280;34212;51.018;13.586;2024-03-06T15:14:27;98456.75;;;9.60;59.65
43155;BME280;34212;51.018;13.586;2024-03-06T15:19:30;98449.50;;;9.44;60.17
43155;BME280;34212;51.018;13.586;2024-03-06T15:24:31;98447.47;;;9.38;60.25
43155;BME280;34212;51.018;13.586;2024-03-06T15:29:33;98456.34;;;9.47;60.34
43155;BME280;34212;51.018;13.586;2024-03-06T15:34:35;98455.66;;;9.45;60.07
43155;BME280;34212;51.018;13.586;2024-03-06T15:39:36;98452.56;;;9.32;60.23
43155;BME280;34212;51.018;13.586;2024-03-06T15:44:38;98453.72;;;9.29;59.50
43155;BME280;34212;51.018;13.586;2024-03-06T15:49:40;98448.41;;;9.29;59.95
43155;BME280;34212;51.018;13.586;2024-03-06T15:54:41;98453.81;;;9.19;59.50
43155;BME280;34212;51.018;13.586;2024-03-06T15:59:43;98461.66;;;9.03;60.17
43155;BME280;34212;51.018;13.586;2024-03-06T16:04:45;98458.25;;;8.75;59.96
43155;BME280;34212;51.018;13.586;2024-03-06T16:09:46;98459.84;;;8.50;60.00
43155;BME280;34212;51.018;13.586;2024-03-06T16:14:48;98471.88;;;8.26;60.42
43155;BME280;34212;51.018;13.586;2024-03-06T16:19:50;98477.66;;;8.12;60.16
43155;BME280;34212;51.018;13.586;2024-03-06T16:24:51;98483.50;;;7.98;59.55
43155;BME280;34212;51.018;13.586;2024-03-06T16:29:54;98484.13;;;7.82;59.75
43155;BME280;34212;51.018;13.586;2024-03-06T16:34:56;98484.13;;;7.72;60.34
43155;BME280;34212;51.018;13.586;2024-03-06T16:39:58;98495.63;;;7.63;60.60
43155;BME280;34212;51.018;13.586;2024-03-06T16:44:59;98496.63;;;7.52;60.44
43155;BME280;34212;51.018;13.586;2024-03-06T16:50:01;98499.59;;;7.39;60.87
43155;BME280;34212;51.018;13.586;2024-03-06T16:55:03;98499.75;;;7.28;60.74
43155;BME280;34212;51.018;13.586;2024-03-06T17:00:05;98497.41;;;7.15;61.10
43155;BME280;34212;51.018;13.586;2024-03-06T17:05:09;98521.69;;;7.11;61.20
43155;BME280;34212;51.018;13.586;2024-03-06T17:10:12;98525.47;;;7.18;61.23
43155;BME280;34212;51.018;13.586;2024-03-06T17:15:15;98520.00;;;7.29;61.88
43155;BME280;34212;51.018;13.586;2024-03-06T17:20:16;98520.84;;;7.39;61.72
43155;BME280;34212;51.018;13.586;2024-03-06T17:25:18;98529.59;;;7.50;62.02
43155;BME280;34212;51.018;13.586;2024-03-06T17:30:19;98528.03;;;7.57;61.48
43155;BME280;34212;51.018;13.586;2024-03-06T17:35:21;98530.41;;;7.60;61.91
43155;BME280;34212;51.018;13.586;2024-03-06T17:40:23;98536.44;;;7.62;61.77
43155;BME280;34212;51.018;13.586;2024-03-06T17:45:24;98544.94;;;7.66;62.51
43155;BME280;34212;51.018;13.586;2024-03-06T17:50:26;98543.13;;;7.66;62.69
43155;BME280;34212;51.018;13.586;2024-03-06T17:55:28;98544.81;;;7.67;62.82
43155;BME280;34212;51.018;13.586;2024-03-06T18:00:30;98552.06;;;7.65;62.63
43155;BME280;34212;51.018;13.586;2024-03-06T18:05:31;98552.34;;;7.62;62.77
43155;BME280;34212;51.018;13.586;2024-03-06T18:10:33;98557.41;;;7.55;63.06
43155;BME280;34212;51.018;13.586;2024-03-06T18:15:34;98563.81;;;7.53;63.38
43155;BME280;34212;51.018;13.586;2024-03-06T18:20:36;98556.16;;;7.50;63.66
43155;BME280;34212;51.018;13.586;2024-03-06T18:25:39;98550.16;;;7.48;63.14
43155;BME280;34212;51.018;13.586;2024-03-06T18:30:40;98558.78;;;7.50;63.71
43155;BME280;34212;51.018;13.586;2024-03-06T18:35:42;98556.88;;;7.42;64.14
43155;BME280;34212;51.018;13.586;2024-03-06T18:40:44;98561.34;;;7.42;64.33
43155;BME280;34212;51.018;13.586;2024-03-06T18:45:45;98571.81;;;7.43;63.92
43155;BME280;34212;51.018;13.586;2024-03-06T18:50:47;98567.22;;;7.35;63.58
43155;BME280;34212;51.018;13.586;2024-03-06T18:55:49;98568.63;;;7.20;63.02
43155;BME280;34212;51.018;13.586;2024-03-06T19:00:51;98578.63;;;7.07;63.44
43155;BME280;34212;51.018;13.586;2024-03-06T19:05:52;98579.63;;;6.96;63.42
43155;BME280;34212;51.018;13.586;2024-03-06T19:10:56;98575.56;;;6.82;63.23
43155;BME280;34212;51.018;13.586;2024-03-06T19:15:58;98592.84;;;6.67;62.90
43155;BME280;34212;51.018;13.586;2024-03-06T19:21:00;98596.69;;;6.53;63.72
43155;BME280;34212;51.018;13.586;2024-03-06T19:26:02;98598.59;;;6.41;63.37
43155;BME280;34212;51.018;13.586;2024-03-06T19:31:03;98592.59;;;6.30;63.45
43155;BME280;34212;51.018;13.586;2024-03-06T19:36:05;98599.38;;;6.22;63.21
43155;BME280;34212;51.018;13.586;2024-03-06T19:41:06;98599.22;;;6.14;63.46
43155;BME280;34212;51.018;13.586;2024-03-06T19:46:08;98600.69;;;6.07;63.56
43155;BME280;34212;51.018;13.586;2024-03-06T19:51:09;98605.94;;;5.97;63.71
43155;BME280;34212;51.018;13.586;2024-03-06T19:56:15;98602.94;;;5.91;63.74
43155;BME280;34212;51.018;13.586;2024-03-06T20:01:17;98606.94;;;5.85;63.94
43155;BME280;34212;51.018;13.586;2024-03-06T20:06:18;98604.72;;;5.81;64.01
43155;BME280;34212;51.018;13.586;2024-03-06T20:11:20;98610.84;;;5.81;64.70
43155;BME280;34212;51.018;13.586;2024-03-06T20:16:22;98611.97;;;5.88;64.26
43155;BME280;34212;51.018;13.586;2024-03-06T20:21:24;98601.63;;;5.96;64.67
43155;BME280;34212;51.018;13.586;2024-03-06T20:26:26;98602.34;;;5.98;64.74
43155;BME280;34212;51.018;13.586;2024-03-06T20:31:27;98604.28;;;5.96;64.54
43155;BME280;34212;51.018;13.586;2024-03-06T20:36:29;98607.91;;;5.95;64.39
43155;BME280;34212;51.018;13.586;2024-03-06T20:41:31;98604.53;;;5.93;64.80
43155;BME280;34212;51.018;13.586;2024-03-06T20:46:32;98599.81;;;5.97;64.52
43155;BME280;34212;51.018;13.586;2024-03-06T20:51:34;98598.91;;;6.08;64.83
43155;BME280;34212;51.018;13.586;2024-03-06T20:56:36;98598.78;;;6.19;64.51
43155;BME280;34212;51.018;13.586;2024-03-06T21:01:38;98609.69;;;6.25;65.08
43155;BME280;34212;51.018;13.586;2024-03-06T21:06:39;98606.41;;;6.33;65.13
43155;BME280;34212;51.018;13.586;2024-03-06T21:11:41;98603.22;;;6.39;65.10
43155;BME280;34212;51.018;13.586;2024-03-06T21:16:43;98604.03;;;6.40;65.71
43155;BME280;34212;51.018;13.586;2024-03-06T21:21:44;98604.16;;;6.38;65.68
43155;BME280;34212;51.018;13.586;2024-03-06T21:26:47;98606.13;;;6.36;65.96
43155;BME280;34212;51.018;13.586;2024-03-06T21:31:49;98610.72;;;6.34;66.11
43155;BME280;34212;51.018;13.586;2024-03-06T21:36:50;98602.38;;;6.39;66.10
43155;BME280;34212;51.018;13.586;2024-03-06T21:41:52;98607.00;;;6.46;66.22
43155;BME280;34212;51.018;13.586;2024-03-06T21:46:54;98609.25;;;6.51;66.25
43155;BME280;34212;51.018;13.586;2024-03-06T21:51:55;98607.84;;;6.57;66.41
43155;BME280;34212;51.018;13.586;2024-03-06T21:56:57;98607.31;;;6.63;66.21
43155;BME280;34212;51.018;13.586;2024-03-06T22:01:58;98605.94;;;6.68;66.10
43155;BME280;34212;51.018;13.586;2024-03-06T22:07:00;98604.84;;;6.71;66.30
43155;BME280;34212;51.018;13.586;2024-03-06T22:12:01;98605.56;;;6.73;66.67
43155;BME280;34212;51.018;13.586;2024-03-06T22:17:04;98613.78;;;6.80;66.22
43155;BME280;34212;51.018;13.586;2024-03-06T22:22:05;98606.97;;;6.87;65.85
43155;BME280;34212;51.018;13.586;2024-03-06T22:27:07;98613.81;;;6.89;66.09
43155;BME280;34212;51.018;13.586;2024-03-06T22:32:09;98614.38;;;6.93;66.36
43155;BME280;34212;51.018;13.586;2024-03-06T22:37:11;98613.25;;;6.96;66.18
43155;BME280;34212;51.018;13.586;2024-03-06T22:42:12;98611.84;;;6.91;66.39
43155;BME280;34212;51.018;13.586;2024-03-06T22:47:14;98608.50;;;6.89;66.35
43155;BME280;34212;51.018;13.586;2024-03-06T22:52:15;98604.03;;;6.90;66.37
43155;BME280;34212;51.018;13.586;2024-03-06T22:57:17;98600.56;;;6.89;66.76
43155;BME280;34212;51.018;13.586;2024-03-06T23:02:18;98603.19;;;6.89;66.80
43155;BME280;34212;51.018;13.586;2024-03-06T23:07:20;98604.03;;;6.90;66.65
43155;BME280;34212;51.018;13.586;2024-03-06T23:12:21;98599.56;;;6.90;67.03
43155;BME280;34212;51.018;13.586;2024-03-06T23:17:23;98595.09;;;6.91;66.70
43155;BME280;34212;51.018;13.586;2024-03-06T23:22:25;98593.56;;;6.88;67.35
43155;BME280;34212;51.018;13.586;2024-03-06T23:27:28;98600.94;;;6.85;67.29
43155;BME280;34212;51.018;13.586;2024-03-06T23:32:29;98601.50;;;6.88;67.44
43155;BME280;34212;51.018;13.586;2024-03-06T23:37:32;98590.34;;;6.94;67.47
43155;BME280;34212;51.018;13.586;2024-03-06T23:42:34;98602.38;;;6.99;67.50
43155;BME280;34212;51.018;13.586;2024-03-06T23:47:38;98603.50;;;6.96;67.80
43155;BME280;34212;51.018;13.586;2024-03-06T23:52:40;98598.84;;;6.88;68.09
43155;BME280;34212;51.018;13.586;2024-03-06T23:57:41;98613.53;;;6.83;68.16
